Time;durP1;ratioP1;P1;durP2;ratioP2;P2;SDS_P1;SDS_P2;PMS_P1;PMS_P2;Temp;Humidity;BMP_temperature;BMP_pressure;BME280_temperature;BME280_humidity;BME280_pressure;Samples;Min_cycle;Max_cycle;Signal;HPM_P1;HPM_P2
2023/11/30 00:02:04;;;;;;;12.80;8.40;;;;;;;0.06;92.38;99020.13;177405;1260;45950;-83
2023/11/30 00:06:08;;;;;;;11.80;8.10;;;;;;;0.09;92.80;99019.40;177397;1263;45952;-83
2023/11/30 00:10:12;;;;;;;13.70;8.70;;;;;;;0.14;93.04;99022.05;177346;1263;58247;-83
2023/11/30 00:14:15;;;;;;;12.10;8.50;;;;;;;0.19;92.96;99021.29;177256;1260;46003;-83
2023/11/30 00:18:18;;;;;;;7.90;5.70;;;;;;;0.24;92.95;99025.16;177173;1261;46016;-83
2023/11/30 00:22:21;;;;;;;13.50;8.40;;;;;;;0.30;92.98;99027.41;177314;1258;45974;-83
2023/11/30 00:26:25;;;;;;;13.20;7.50;;;;;;;0.35;93.01;99031.46;177350;1260;46092;-82
2023/11/30 00:30:28;;;;;;;16.40;9.00;;;;;;;0.39;93.06;99031.77;177227;1261;59520;-83
2023/11/30 00:34:31;;;;;;;10.40;7.10;;;;;;;0.40;93.36;99037.64;177126;1260;45984;-82
2023/11/30 00:38:34;;;;;;;15.00;7.80;;;;;;;0.41;93.35;99039.70;176862;1259;48006;-82
2023/11/30 00:42:37;;;;;;;12.70;8.10;;;;;;;0.42;93.53;99040.65;177158;1261;45925;-82
2023/11/30 00:46:41;;;;;;;14.70;8.30;;;;;;;0.43;94.03;99040.28;177139;1260;46111;-82
2023/11/30 00:50:44;;;;;;;11.10;7.30;;;;;;;0.43;94.19;99039.23;177178;1260;59329;-83
2023/11/30 00:54:47;;;;;;;17.90;9.00;;;;;;;0.43;94.35;99037.30;176936;1262;44224;-83
2023/11/30 00:58:51;;;;;;;12.10;8.10;;;;;;;0.46;94.93;99046.90;177490;1259;46105;-83
2023/11/30 01:02:54;;;;;;;9.60;7.00;;;;;;;0.45;95.68;99052.54;177143;1260;46111;-83
2023/11/30 01:06:57;;;;;;;15.10;9.90;;;;;;;0.45;96.58;99058.27;177076;1260;46195;-82
2023/11/30 01:11:03;;;;;;;11.60;9.30;;;;;;;0.47;96.99;99061.33;177164;1260;273421;-83
2023/11/30 01:15:07;;;;;;;14.70;9.00;;;;;;;0.50;97.29;99059.02;177568;1261;46120;-82
2023/11/30 01:19:11;;;;;;;18.10;9.70;;;;;;;0.49;97.48;99052.99;177164;1261;46391;-82
2023/11/30 01:23:14;;;;;;;14.00;11.80;;;;;;;0.48;98.01;99049.77;177587;1259;45905;-83
2023/11/30 01:27:17;;;;;;;15.80;9.70;;;;;;;0.48;98.34;99052.74;177564;1260;46102;-82
2023/11/30 01:31:20;;;;;;;16.80;8.40;;;;;;;0.44;98.37;99049.29;177867;1260;60766;-83
2023/11/30 01:35:28;;;;;;;11.00;8.50;;;;;;;0.43;98.77;99052.67;177800;1260;46095;-83
2023/11/30 01:39:32;;;;;;;12.00;8.30;;;;;;;0.41;99.33;99057.79;177735;1260;46088;-83
2023/11/30 01:43:35;;;;;;;13.50;9.20;;;;;;;0.42;99.29;99058.48;177503;1259;46044;-83
2023/11/30 01:47:38;;;;;;;10.50;6.30;;;;;;;0.43;99.26;99059.81;177180;1259;45942;-83
2023/11/30 01:51:42;;;;;;;11.10;8.00;;;;;;;0.47;98.92;99054.54;177411;1259;58234;-83
2023/11/30 01:55:45;;;;;;;20.80;9.30;;;;;;;0.49;98.56;99054.73;177294;1260;45985;-83
2023/11/30 01:59:49;;;;;;;15.00;9.80;;;;;;;0.50;98.34;99056.97;177137;1259;46384;-83
2023/11/30 02:03:53;;;;;;;19.20;11.20;;;;;;;0.49;98.17;99056.14;177404;1259;46021;-83
2023/11/30 02:07:59;;;;;;;14.00;7.80;;;;;;;0.48;98.17;99057.10;177221;1263;46066;-83
2023/11/30 02:12:03;;;;;;;14.80;9.00;;;;;;;0.48;97.65;99057.95;177385;1258;59526;-82
2023/11/30 02:16:07;;;;;;;12.50;7.40;;;;;;;0.47;97.43;99054.86;177693;1259;45937;-83
2023/11/30 02:20:10;;;;;;;11.40;7.30;;;;;;;0.52;97.07;99056.51;177302;1261;48100;-82
2023/11/30 02:24:14;;;;;;;12.00;9.00;;;;;;;0.56;96.37;99057.10;177695;1259;45985;-83
2023/11/30 02:28:18;;;;;;;14.40;9.10;;;;;;;0.60;95.95;99058.82;177420;1258;46094;-83
2023/11/30 02:32:21;;;;;;;12.00;7.60;;;;;;;0.62;95.58;99059.05;177246;1259;59240;-83
2023/11/30 02:36:24;;;;;;;11.40;7.10;;;;;;;0.61;95.12;99055.10;177271;1260;46115;-83
2023/11/30 02:40:28;;;;;;;10.60;6.60;;;;;;;0.63;95.25;99054.77;177553;1259;46089;-83
2023/11/30 02:44:31;;;;;;;9.10;7.00;;;;;;;0.67;95.12;99053.34;177351;1261;46105;-83
2023/11/30 02:48:37;;;;;;;10.60;8.30;;;;;;;0.69;95.04;99054.59;177172;1259;46069;-83
2023/11/30 02:52:40;;;;;;;12.50;8.40;;;;;;;0.69;95.18;99058.80;177011;1258;58163;-83
2023/11/30 02:56:43;;;;;;;14.70;13.30;;;;;;;0.71;95.29;99068.28;177204;1258;45838;-83
2023/11/30 03:00:47;;;;;;;11.90;9.50;;;;;;;0.75;95.39;99069.08;177185;1263;46021;-84
2023/11/30 03:04:50;;;;;;;11.30;7.60;;;;;;;0.79;95.04;99066.20;177422;1258;46402;-84
2023/11/30 03:08:53;;;;;;;9.70;7.50;;;;;;;0.83;94.76;99067.73;177240;1259;46198;-83
2023/11/30 03:12:57;;;;;;;13.20;8.30;;;;;;;0.82;94.70;99071.11;177400;1259;57845;-83
2023/11/30 03:17:00;;;;;;;12.40;9.20;;;;;;;0.82;94.12;99068.30;177299;1260;46140;-83
2023/11/30 03:21:04;;;;;;;13.80;9.20;;;;;;;0.83;94.27;99074.67;177172;1258;46073;-83
2023/11/30 03:25:08;;;;;;;15.20;10.00;;;;;;;0.85;94.46;99073.68;177199;1259;46077;-83
2023/11/30 03:29:11;;;;;;;14.10;9.50;;;;;;;0.90;94.38;99074.94;177264;1259;45861;-84
2023/11/30 03:33:14;;;;;;;14.40;9.30;;;;;;;0.91;93.99;99073.35;177201;1259;58813;-84
2023/11/30 03:37:17;;;;;;;16.50;11.50;;;;;;;0.89;93.76;99071.91;177224;1261;46200;-83
2023/11/30 03:41:21;;;;;;;14.60;11.50;;;;;;;0.90;93.95;99072.36;177364;1260;46074;-84
2023/11/30 03:45:24;;;;;;;15.60;11.00;;;;;;;0.90;93.75;99072.34;177263;1259;46334;-82
2023/11/30 03:49:27;;;;;;;15.30;10.10;;;;;;;0.93;93.64;99072.51;177541;1260;45934;-82
2023/11/30 03:53:30;;;;;;;14.90;9.30;;;;;;;0.97;93.94;99075.08;177655;1259;58994;-83
2023/11/30 03:57:33;;;;;;;14.70;9.90;;;;;;;0.96;92.59;99074.45;177559;1259;45869;-83
2023/11/30 04:01:37;;;;;;;13.00;9.00;;;;;;;0.88;91.15;99069.66;177586;1258;46105;-82
2023/11/30 04:05:40;;;;;;;9.30;8.20;;;;;;;0.86;91.67;99067.91;177369;1259;46083;-82
2023/11/30 04:09:45;;;;;;;8.10;6.80;;;;;;;0.77;88.47;99070.71;177175;1260;46114;-82
2023/11/30 04:13:49;;;;;;;16.40;8.70;;;;;;;0.50;87.35;99069.85;177328;1259;57882;-86
2023/11/30 04:17:53;;;;;;;97.00;38.50;;;;;;;0.38;89.04;99067.06;177391;1259;46134;-84
2023/11/30 04:21:56;;;;;;;63.90;27.90;;;;;;;0.23;88.63;99063.73;177896;1258;45976;-85
2023/11/30 04:25:59;;;;;;;32.30;16.20;;;;;;;0.21;90.94;99064.27;177603;1259;45967;-85
2023/11/30 04:30:04;;;;;;;39.60;20.50;;;;;;;0.20;91.89;99054.52;177223;1259;46250;-85
2023/11/30 04:34:08;;;;;;;35.60;17.30;;;;;;;0.23;92.10;99057.64;177817;1259;59244;-84
2023/11/30 04:38:11;;;;;;;30.50;15.80;;;;;;;0.23;92.32;99052.80;177545;1258;46005;-85
2023/11/30 04:42:14;;;;;;;33.50;14.40;;;;;;;0.26;92.73;99053.80;177287;1260;46102;-84
2023/11/30 04:46:18;;;;;;;30.50;16.30;;;;;;;0.28;92.34;99053.33;177405;1258;44633;-85
2023/11/30 04:50:21;;;;;;;22.90;14.00;;;;;;;0.32;92.39;99052.27;177281;1259;46089;-84
2023/11/30 04:54:24;;;;;;;25.60;14.40;;;;;;;0.34;92.53;99052.15;177284;1259;58244;-85
2023/11/30 04:58:28;;;;;;;28.50;17.20;;;;;;;0.34;92.61;99057.89;177276;1259;46655;-85
2023/11/30 05:02:32;;;;;;;32.30;15.90;;;;;;;0.39;92.44;99057.74;177252;1260;46086;-86
2023/11/30 05:06:36;;;;;;;26.70;18.60;;;;;;;0.48;92.85;99050.27;177088;1262;46174;-85
2023/11/30 05:10:39;;;;;;;32.40;17.50;;;;;;;0.52;92.56;99056.45;177617;1259;46040;-84
2023/11/30 05:14:43;;;;;;;34.60;18.00;;;;;;;0.52;92.88;99057.85;177374;1259;57909;-85
2023/11/30 05:18:47;;;;;;;24.50;13.90;;;;;;;0.53;92.97;99058.19;177173;1260;45973;-85
2023/11/30 05:22:50;;;;;;;25.30;14.90;;;;;;;0.51;93.46;99061.63;177124;1258;46165;-85
2023/11/30 05:26:53;;;;;;;29.60;17.60;;;;;;;0.40;94.04;99067.45;177206;1259;46646;-84
2023/11/30 05:30:57;;;;;;;48.10;28.10;;;;;;;0.35;94.07;99061.09;177210;1259;46079;-84
2023/11/30 05:35:00;;;;;;;38.90;22.20;;;;;;;0.30;94.03;99056.53;177142;1260;59152;-85
2023/11/30 05:39:03;;;;;;;37.60;23.90;;;;;;;0.13;94.19;99056.83;177175;1259;45845;-84
2023/11/30 05:43:07;;;;;;;33.00;17.40;;;;;;;0.06;94.88;99056.56;177235;1260;44517;-84
2023/11/30 05:47:10;;;;;;;24.90;15.00;;;;;;;0.04;95.64;99055.80;177068;1259;46043;-84
2023/11/30 05:51:13;;;;;;;20.40;13.20;;;;;;;-0.12;96.78;99065.23;177446;1260;45943;-84
2023/11/30 05:55:17;;;;;;;27.40;17.30;;;;;;;-0.26;98.28;99071.79;177185;1258;58495;-85
2023/11/30 05:59:20;;;;;;;24.70;18.40;;;;;;;-0.21;98.06;99075.64;177264;1259;46044;-84
2023/11/30 06:03:24;;;;;;;27.00;16.40;;;;;;;-0.21;99.26;99078.80;177198;1259;45983;-84
2023/11/30 06:07:29;;;;;;;47.60;30.20;;;;;;;-0.30;99.99;99086.61;177563;1258;46188;-85
2023/11/30 06:11:32;;;;;;;62.30;37.10;;;;;;;-0.28;100.00;99089.13;177478;1260;46076;-83
2023/11/30 06:15:36;;;;;;;30.90;19.70;;;;;;;-0.32;100.00;99091.93;177537;1259;58033;-86
2023/11/30 06:19:40;;;;;;;26.20;15.80;;;;;;;-0.24;100.00;99087.66;177489;1259;46774;-85
2023/11/30 06:23:43;;;;;;;31.30;20.10;;;;;;;-0.16;100.00;99093.70;177285;1260;45958;-86
2023/11/30 06:27:47;;;;;;;27.90;17.40;;;;;;;-0.03;100.00;99090.50;177359;1259;45975;-84
2023/11/30 06:31:50;;;;;;;42.60;26.00;;;;;;;0.22;100.00;99092.05;177321;1259;46080;-85
2023/11/30 06:35:53;;;;;;;45.30;29.70;;;;;;;0.45;100.00;99090.05;177399;1260;59536;-84
2023/11/30 06:39:56;;;;;;;54.60;34.50;;;;;;;0.57;99.86;99089.00;177438;1259;46188;-84
2023/11/30 06:44:00;;;;;;;47.50;30.70;;;;;;;0.69;100.00;99091.06;177112;1260;46079;-85
2023/11/30 06:48:03;;;;;;;48.70;30.60;;;;;;;0.80;99.16;99086.25;177265;1258;46457;-85
2023/11/30 06:52:07;;;;;;;29.70;19.50;;;;;;;0.78;98.65;99087.38;177507;1261;45886;-85
2023/11/30 06:56:11;;;;;;;19.90;14.80;;;;;;;0.81;99.01;99083.92;177661;1258;58968;-85
2023/11/30 07:00:15;;;;;;;24.80;14.60;;;;;;;0.98;99.89;99084.81;177281;1260;46102;-84
2023/11/30 07:04:18;;;;;;;29.70;18.20;;;;;;;1.15;99.30;99083.39;177733;1260;46192;-85
2023/11/30 07:08:21;;;;;;;36.70;20.80;;;;;;;1.30;99.86;99089.10;177104;1259;45963;-86
2023/11/30 07:12:25;;;;;;;25.90;18.50;;;;;;;1.51;99.66;99093.58;177541;1258;46076;-85
2023/11/30 07:16:28;;;;;;;25.30;17.90;;;;;;;1.68;98.84;99096.19;177348;1259;58096;-84
2023/11/30 07:20:31;;;;;;;27.60;18.20;;;;;;;1.81;96.33;99103.55;177185;1259;46008;-83
2023/11/30 07:24:34;;;;;;;32.50;19.60;;;;;;;1.72;94.40;99101.68;177185;1259;46089;-85
2023/11/30 07:28:38;;;;;;;26.10;19.60;;;;;;;1.76;93.99;99101.63;177141;1259;44675;-85
2023/11/30 07:32:42;;;;;;;21.90;15.70;;;;;;;1.79;92.72;99097.60;177246;1259;46104;-82
2023/11/30 07:36:46;;;;;;;22.40;16.60;;;;;;;1.80;92.31;99099.41;177311;1259;58225;-84
2023/11/30 07:40:50;;;;;;;25.20;17.60;;;;;;;1.88;93.13;99097.84;177686;1259;46105;-84
2023/11/30 07:44:54;;;;;;;20.50;14.60;;;;;;;2.12;94.32;99094.25;177489;1260;44193;-84
2023/11/30 07:48:57;;;;;;;20.30;13.90;;;;;;;2.28;91.54;99101.23;177086;1260;46115;-84
2023/11/30 07:53:04;;;;;;;26.70;16.30;;;;;;;2.42;92.86;99106.61;177580;1259;45868;-84
2023/11/30 07:57:07;;;;;;;20.70;15.20;;;;;;;2.69;92.50;99103.23;177770;1262;60099;-85
2023/11/30 08:01:11;;;;;;;34.60;25.70;;;;;;;2.80;90.17;99103.90;177222;1259;45978;-85
2023/11/30 08:05:14;;;;;;;44.80;26.90;;;;;;;2.85;90.40;99103.19;177081;1260;46185;-84
2023/11/30 08:09:20;;;;;;;37.90;23.30;;;;;;;2.89;90.51;99106.58;177365;1259;46108;-85
2023/11/30 08:13:23;;;;;;;41.90;29.10;;;;;;;2.99;88.85;99097.48;176963;1259;46418;-85
2023/11/30 08:17:27;;;;;;;37.40;23.70;;;;;;;3.01;87.42;99097.91;177148;1259;59283;-85
2023/11/30 08:21:30;;;;;;;33.00;23.10;;;;;;;3.07;87.90;99101.69;176975;1259;46095;-85
2023/11/30 08:25:34;;;;;;;26.70;17.80;;;;;;;3.11;87.52;99102.80;177118;1259;45901;-85
2023/11/30 08:29:37;;;;;;;34.00;24.70;;;;;;;3.17;88.90;99100.81;177272;1259;46032;-85
2023/11/30 08:33:40;;;;;;;35.70;24.00;;;;;;;3.38;89.02;99102.67;177180;1260;46048;-85
2023/11/30 08:37:44;;;;;;;35.10;24.10;;;;;;;3.46;86.42;99108.61;177582;1260;59560;-86
2023/11/30 08:41:47;;;;;;;61.50;33.70;;;;;;;3.24;84.17;99106.83;177685;1260;45986;-85
2023/11/30 08:45:51;;;;;;;85.90;43.70;;;;;;;3.15;84.66;99109.71;177766;1260;44830;-85
2023/11/30 08:49:54;;;;;;;58.80;33.00;;;;;;;3.15;85.83;99109.71;177928;1260;46076;-84
2023/11/30 08:53:57;;;;;;;60.10;40.20;;;;;;;3.14;86.21;99110.52;177315;1259;45125;-85
2023/11/30 08:58:00;;;;;;;68.40;36.60;;;;;;;3.33;87.51;99116.17;177305;1259;59448;-85
2023/11/30 09:02:05;;;;;;;50.10;27.70;;;;;;;3.41;85.81;99120.85;178096;1258;45113;-83
2023/11/30 09:06:09;;;;;;;41.60;28.30;;;;;;;3.39;84.74;99128.23;177808;1258;45980;-84
2023/11/30 09:10:12;;;;;;;52.20;33.90;;;;;;;3.39;86.20;99124.20;177274;1261;46108;-84
2023/11/30 09:14:15;;;;;;;64.50;36.30;;;;;;;3.48;86.06;99125.27;177635;1259;45927;-85
2023/11/30 09:18:19;;;;;;;54.30;31.30;;;;;;;3.66;86.89;99129.64;177143;1261;59906;-85
2023/11/30 09:22:22;;;;;;;53.10;33.70;;;;;;;3.91;86.74;99129.66;177388;1259;46586;-85
2023/11/30 09:26:26;;;;;;;81.60;43.30;;;;;;;4.12;86.06;99129.52;177721;1260;46201;-86
2023/11/30 09:30:29;;;;;;;52.10;33.30;;;;;;;4.23;84.87;99129.73;177669;1262;45936;-85
2023/11/30 09:34:33;;;;;;;52.80;31.80;;;;;;;4.26;84.18;99131.16;177609;1259;46092;-86
2023/11/30 09:38:36;;;;;;;107.40;61.20;;;;;;;4.25;84.85;99119.84;177802;1260;58369;-87
2023/11/30 09:42:39;;;;;;;50.90;33.40;;;;;;;4.17;83.77;99115.27;177629;1260;45982;-86
2023/11/30 09:46:44;;;;;;;93.00;43.80;;;;;;;4.12;83.87;99107.59;177265;1259;46044;-85
2023/11/30 09:50:47;;;;;;;75.90;43.10;;;;;;;4.13;84.34;99104.48;177485;1258;46003;-87
2023/11/30 09:54:56;;;;;;;47.00;26.30;;;;;;;4.27;84.99;99095.61;178704;1260;44729;-84
2023/11/30 09:58:59;;;;;;;29.00;20.30;;;;;;;4.39;84.31;99089.64;177256;1260;59583;-86
2023/11/30 10:03:05;;;;;;;28.90;19.70;;;;;;;4.47;84.44;99085.85;177420;1260;46128;-87
2023/11/30 10:07:09;;;;;;;28.60;16.70;;;;;;;4.70;85.21;99079.36;177580;1258;46079;-87
2023/11/30 10:11:13;;;;;;;65.40;37.50;;;;;;;4.87;84.39;99076.52;177546;1260;46457;-87
2023/11/30 10:15:16;;;;;;;33.60;21.70;;;;;;;4.99;84.50;99073.88;177665;1260;46066;-87
2023/11/30 10:19:20;;;;;;;32.20;19.10;;;;;;;5.02;84.06;99070.62;178030;1258;57492;-88
2023/11/30 10:23:23;;;;;;;29.80;16.50;;;;;;;4.95;85.35;99061.83;178001;1262;46017;-88
2023/11/30 10:27:31;;;;;;;23.30;13.60;;;;;;;4.82;85.78;99053.03;177987;1260;45981;-88
2023/11/30 10:31:37;;;;;;;29.60;19.60;;;;;;;4.72;87.37;99055.04;178024;1259;46066;-87
2023/11/30 10:35:46;;;;;;;25.30;16.50;;;;;;;4.73;87.18;99052.67;177486;1260;46080;-87
2023/11/30 10:40:00;;;;;;;21.10;17.90;;;;;;;4.63;86.83;99058.31;177697;1260;57755;-87
2023/11/30 10:44:07;;;;;;;24.40;17.60;;;;;;;4.50;88.15;99061.26;177503;1259;46039;-88
2023/11/30 10:48:11;;;;;;;;;;;;;;;4.44;89.68;99061.83;177932;1258;46093;-88
2023/11/30 10:52:17;;;;;;;25.20;16.90;;;;;;;4.54;88.49;99064.80;178228;1259;44537;-87
2023/11/30 10:56:22;;;;;;;27.00;19.60;;;;;;;4.73;88.23;99061.74;177980;1259;46015;-88
2023/11/30 11:00:34;;;;;;;18.30;12.40;;;;;;;4.87;86.96;99059.45;177560;1258;59617;-88
2023/11/30 11:04:43;;;;;;;18.90;14.00;;;;;;;4.66;85.15;99051.25;177902;1259;45981;-88
2023/11/30 11:09:09;;;;;;;17.20;11.60;;;;;;;4.46;86.30;99059.13;178177;1258;46022;-88
2023/11/30 11:13:28;;;;;;;15.70;13.00;;;;;;;4.08;87.95;99060.30;179021;1260;46070;-87
2023/11/30 11:17:31;;;;;;;13.30;10.80;;;;;;;3.81;89.29;99060.20;177931;1260;45985;-88
2023/11/30 11:21:38;;;;;;;19.50;12.10;;;;;;;3.76;91.64;99060.55;177893;1260;59392;-87
2023/11/30 11:25:41;;;;;;;;;;;;;;;3.89;91.97;99056.85;177992;1260;46006;-88
2023/11/30 11:29:45;;;;;;;17.70;11.20;;;;;;;4.12;90.64;99053.20;177710;1259;45907;-87
2023/11/30 11:33:49;;;;;;;30.70;17.70;;;;;;;4.11;88.40;99051.69;177718;1262;46464;-86
2023/11/30 11:37:59;;;;;;;22.20;15.00;;;;;;;4.07;90.51;99052.30;177894;1259;45988;-88
2023/11/30 11:42:03;;;;;;;21.80;13.70;;;;;;;3.86;90.24;99050.73;177969;1260;58708;-87
2023/11/30 11:46:06;;;;;;;17.60;12.20;;;;;;;3.83;92.87;99043.38;177968;1258;46073;-87
2023/11/30 11:50:12;;;;;;;19.50;14.00;;;;;;;3.91;93.49;99039.63;177673;1259;46103;-89
2023/11/30 11:54:20;;;;;;;21.70;15.10;;;;;;;3.93;92.89;99031.65;177808;1260;45823;-88
2023/11/30 11:58:24;;;;;;;19.60;13.10;;;;;;;3.85;92.85;99033.03;177890;1260;44892;-89
2023/11/30 12:02:28;;;;;;;15.90;12.40;;;;;;;3.85;93.40;99027.30;178018;1261;58246;-86
2023/11/30 12:06:31;;;;;;;21.10;14.90;;;;;;;3.78;93.72;99020.06;177823;1259;46093;-87
2023/11/30 12:10:40;;;;;;;31.10;18.80;;;;;;;3.69;93.77;99012.34;178533;1260;46073;-87
2023/11/30 12:14:43;;;;;;;30.90;20.20;;;;;;;3.59;93.77;99012.73;177782;1260;46185;-89
2023/11/30 12:18:48;;;;;;;31.50;20.80;;;;;;;3.52;93.61;99010.23;177999;1258;46055;-88
2023/11/30 12:22:52;;;;;;;46.80;30.30;;;;;;;3.47;92.94;99006.16;177736;1260;59727;-87
2023/11/30 12:26:55;;;;;;;58.50;32.20;;;;;;;3.38;92.94;98999.80;177903;1259;46026;-89
2023/11/30 12:30:59;;;;;;;60.20;35.70;;;;;;;3.26;92.74;98993.35;177547;1260;46096;-87
2023/11/30 12:35:04;;;;;;;53.00;31.10;;;;;;;3.15;92.96;98987.99;177583;1261;46279;-87
2023/11/30 12:39:10;;;;;;;47.70;33.80;;;;;;;3.08;93.59;98989.55;177597;1262;46087;-89
2023/11/30 12:43:18;;;;;;;39.90;27.60;;;;;;;3.03;94.23;98993.02;177353;1262;59481;-89
2023/11/30 12:47:21;;;;;;;39.20;27.10;;;;;;;3.00;94.91;98994.11;177511;1258;46096;-88
2023/11/30 12:51:25;;;;;;;35.00;23.30;;;;;;;3.01;95.61;98998.06;177426;1260;46085;-87
2023/11/30 12:55:28;;;;;;;35.40;22.00;;;;;;;3.03;96.00;98995.15;177431;1258;46063;-86
2023/11/30 12:59:33;;;;;;;36.70;22.10;;;;;;;3.05;95.62;98984.14;177790;1258;46362;-88
2023/11/30 13:03:36;;;;;;;33.20;20.00;;;;;;;3.02;95.70;98980.84;177892;1261;58053;-88
2023/11/30 13:07:41;;;;;;;31.70;20.30;;;;;;;2.99;95.78;98985.05;178008;1260;46149;-88
2023/11/30 13:11:45;;;;;;;29.20;19.80;;;;;;;2.95;95.59;98984.99;177588;1259;236851;-88
2023/11/30 13:15:48;;;;;;;34.80;21.90;;;;;;;2.90;96.49;98977.63;177751;1260;46069;-88
2023/11/30 13:19:52;;;;;;;38.40;23.20;;;;;;;2.87;95.78;98969.48;177845;1258;45995;-88
2023/11/30 13:23:55;;;;;;;25.30;17.50;;;;;;;2.81;96.02;98972.13;177731;1260;59414;-88
2023/11/30 13:28:00;;;;;;;32.00;21.70;;;;;;;2.69;97.33;98973.19;177918;1259;46034;-87
2023/11/30 13:32:04;;;;;;;32.40;19.20;;;;;;;2.54;96.67;98972.79;177684;1259;45936;-86
2023/11/30 13:36:08;;;;;;;29.40;18.90;;;;;;;2.44;98.82;98974.69;177433;1258;46101;-88
2023/11/30 13:40:12;;;;;;;30.60;19.80;;;;;;;2.46;99.55;98975.31;178099;1260;46099;-89
2023/11/30 13:44:16;;;;;;;34.00;19.40;;;;;;;2.54;99.55;98976.66;178487;1260;59993;-87
2023/11/30 13:48:20;;;;;;;31.00;19.80;;;;;;;2.62;99.86;98978.01;178676;1260;46003;-85
2023/11/30 13:52:23;;;;;;;40.80;23.70;;;;;;;2.68;98.56;98983.38;178101;1258;45927;-87
2023/11/30 13:56:27;;;;;;;29.00;19.00;;;;;;;2.69;98.05;98973.48;177867;1259;45997;-82
2023/11/30 14:00:30;;;;;;;32.30;21.00;;;;;;;2.72;99.70;98974.88;178022;1258;46096;-86
2023/11/30 14:04:33;;;;;;;33.10;17.60;;;;;;;2.72;98.77;98975.55;177762;1260;59200;-88
2023/11/30 14:08:36;;;;;;;20.10;15.80;;;;;;;2.72;98.85;98974.54;178293;1260;46096;-85
2023/11/30 14:12:43;;;;;;;31.20;19.50;;;;;;;2.70;99.62;98969.21;177960;1259;46100;-85
2023/11/30 14:16:46;;;;;;;38.80;24.50;;;;;;;2.68;98.54;98972.55;177774;1262;46029;-86
2023/11/30 14:20:50;;;;;;;34.90;21.80;;;;;;;2.56;95.50;98962.66;178267;1259;46100;-86
2023/11/30 14:24:54;;;;;;;38.30;24.30;;;;;;;2.36;94.91;98968.43;177913;1260;60594;-87
2023/11/30 14:28:57;;;;;;;45.70;30.30;;;;;;;2.17;95.10;98972.28;178250;1260;46063;-88
2023/11/30 14:33:01;;;;;;;48.50;29.60;;;;;;;2.03;96.23;98968.52;178318;1258;46111;-88
2023/11/30 14:37:04;;;;;;;36.20;23.30;;;;;;;1.93;96.85;98957.34;178201;1260;46181;-87
2023/11/30 14:41:08;;;;;;;31.70;22.70;;;;;;;1.91;97.73;98949.97;177680;1260;44715;-88
2023/11/30 14:45:11;;;;;;;130.40;78.50;;;;;;;1.91;99.47;98946.63;178347;1260;59259;-85
2023/11/30 14:49:16;;;;;;;45.60;24.00;;;;;;;1.92;99.16;98944.31;179258;1260;46095;-85
2023/11/30 14:58:05;;;;;;;31.30;17.60;;;;;;;1.65;94.92;98954.98;171716;1260;43942;-66
2023/11/30 15:02:09;;;;;;;41.60;27.70;;;;;;;1.52;94.99;98961.23;179788;1261;45968;-67
2023/11/30 15:06:13;;;;;;;41.10;27.00;;;;;;;1.42;94.92;98955.63;179894;1261;60026;-66
2023/11/30 15:10:43;;;;;;;42.00;25.40;;;;;;;1.33;94.47;98961.23;180007;1261;45349;-66
2023/11/30 15:14:47;;;;;;;42.30;28.60;;;;;;;1.20;94.04;98968.52;180013;1261;43748;-66
2023/11/30 15:19:18;;;;;;;32.90;21.10;;;;;;;1.07;93.41;98968.65;180010;1261;45908;-67
2023/11/30 15:23:21;;;;;;;30.70;20.90;;;;;;;0.83;93.65;98969.44;179995;1260;43677;-66
2023/11/30 15:27:29;;;;;;;38.20;22.70;;;;;;;0.66;94.22;98971.55;179881;1260;58362;-65
2023/11/30 15:31:33;;;;;;;37.50;23.00;;;;;;;0.58;94.88;98971.70;180001;1262;45901;-65
2023/11/30 15:35:46;;;;;;;30.90;19.50;;;;;;;0.49;95.04;98975.23;180011;1262;44933;-71
2023/11/30 15:39:55;;;;;;;37.70;23.50;;;;;;;0.37;95.06;98967.52;180373;1261;46099;-71
2023/11/30 15:44:00;;;;;;;28.80;22.20;;;;;;;0.28;95.55;98977.14;180535;1264;45961;-71
2023/11/30 15:48:05;;;;;;;42.00;23.20;;;;;;;0.17;96.24;98984.95;180376;1260;58153;-71
2023/11/30 15:52:32;;;;;;;30.30;22.60;;;;;;;0.09;95.55;98988.52;180153;1260;44592;-71
2023/11/30 15:56:35;;;;;;;35.30;23.60;;;;;;;0.02;95.50;98990.17;180212;1260;46086;-70
2023/11/30 16:00:47;;;;;;;39.20;18.90;;;;;;;-0.14;94.81;98997.55;180381;1262;43654;-70
2023/11/30 16:04:51;;;;;;;42.10;24.70;;;;;;;-0.43;94.50;99003.70;180154;1262;44284;-70
2023/11/30 16:08:55;;;;;;;34.70;19.60;;;;;;;-0.69;94.30;98999.63;180114;1262;57963;-71
2023/11/30 16:12:58;;;;;;;47.60;25.90;;;;;;;-0.93;95.41;98998.66;180020;1260;46033;-69
2023/11/30 16:17:03;;;;;;;46.90;29.50;;;;;;;-1.00;96.35;98993.45;180315;1261;46092;-70
2023/11/30 16:21:39;;;;;;;46.20;23.70;;;;;;;-1.03;96.84;98988.70;180459;1261;44273;-70
2023/11/30 16:25:43;;;;;;;43.10;27.70;;;;;;;-1.09;96.85;98998.12;180284;1261;43551;-70
2023/11/30 16:34:51;;;;;;;48.90;27.00;;;;;;;-1.37;100.00;98992.29;180491;1261;43535;-70
2023/11/30 16:38:59;;;;;;;52.60;29.30;;;;;;;-1.36;99.94;98987.72;180556;1260;46004;-70
2023/11/30 16:43:06;;;;;;;53.60;29.50;;;;;;;-1.34;99.53;98986.21;180437;1261;44283;-71
2023/11/30 16:47:12;;;;;;;48.30;23.10;;;;;;;-1.39;98.59;98982.34;180569;1260;44056;-71
2023/11/30 16:51:18;;;;;;;57.50;30.80;;;;;;;-1.48;98.31;98981.10;180374;1260;58743;-71
2023/11/30 16:55:23;;;;;;;53.30;29.40;;;;;;;-1.59;97.48;98988.60;180395;1262;43772;-72
2023/11/30 16:59:27;;;;;;;44.20;28.20;;;;;;;-1.80;97.42;98986.19;180451;1262;43489;-71
2023/11/30 17:03:31;;;;;;;53.40;32.30;;;;;;;-1.95;97.87;98982.24;180374;1262;43920;-71
2023/11/30 17:07:34;;;;;;;49.90;30.90;;;;;;;-2.09;98.82;98982.77;180151;1262;43555;-71
2023/11/30 17:11:56;;;;;;;57.60;30.30;;;;;;;-2.36;99.39;98983.79;180141;1262;57517;-72
2023/11/30 17:16:00;;;;;;;96.40;55.70;;;;;;;-2.52;100.00;98986.10;179817;1262;43782;-71
2023/11/30 17:20:07;;;;;;;242.90;137.00;;;;;;;-2.55;100.00;98994.40;179580;1266;45996;-73
2023/11/30 17:24:37;;;;;;;;;;;;;;;-2.56;99.60;98997.93;179418;1262;46567;-71
2023/11/30 17:28:43;;;;;;;85.60;38.90;;;;;;;-2.55;99.23;98998.58;179025;1262;45921;-71
2023/11/30 17:32:54;;;;;;;40.20;26.20;;;;;;;-2.52;100.00;98993.23;178404;1266;57968;-71
2023/11/30 17:36:59;;;;;;;60.90;35.80;;;;;;;-2.61;100.00;98995.75;178630;1262;45930;-71
2023/11/30 17:41:04;;;;;;;72.90;38.60;;;;;;;-2.65;100.00;98989.36;178791;1262;45878;-70
2023/11/30 17:45:09;;;;;;;62.50;35.80;;;;;;;-2.60;100.00;98987.01;178743;1262;46030;-70
2023/11/30 17:49:15;;;;;;;65.00;39.20;;;;;;;-2.57;100.00;98978.04;178837;1262;46323;-70
2023/11/30 17:53:18;;;;;;;71.60;40.40;;;;;;;-2.51;100.00;98979.45;179008;1265;59431;-70
2023/11/30 17:57:22;;;;;;;78.90;42.80;;;;;;;-2.40;100.00;98973.72;179406;1262;46215;-70
2023/11/30 18:01:27;;;;;;;69.70;37.50;;;;;;;-2.31;100.00;98973.27;179491;1262;45996;-70
2023/11/30 18:05:38;;;;;;;68.30;41.20;;;;;;;-2.25;100.00;98964.32;179660;1263;44918;-70
2023/11/30 18:09:44;;;;;;;79.60;47.60;;;;;;;-2.27;100.00;98954.52;179515;1262;44744;-70
2023/11/30 18:13:49;;;;;;;87.00;50.50;;;;;;;-2.25;100.00;98950.27;179683;1262;58531;-70
2023/11/30 18:17:58;;;;;;;134.30;78.10;;;;;;;-2.24;100.00;98942.35;179624;1262;46058;-70
2023/11/30 18:22:02;;;;;;;187.80;95.20;;;;;;;-2.13;100.00;98944.27;179698;1262;46000;-70
2023/11/30 18:26:35;;;;;;;131.80;71.70;;;;;;;-1.96;100.00;98939.21;179667;1262;43854;-70
2023/11/30 18:30:38;;;;;;;145.00;79.40;;;;;;;-1.99;100.00;98919.93;179766;1262;44748;-70
2023/11/30 18:34:47;;;;;;;;;;;;;;;-2.02;100.00;98913.09;179618;1262;58892;-70
2023/11/30 18:38:52;;;;;;;128.00;64.70;;;;;;;-2.03;100.00;98914.89;179500;1261;45034;-70
2023/11/30 18:42:58;;;;;;;117.80;64.70;;;;;;;-2.07;100.00;98923.78;179345;1264;46003;-70
2023/11/30 18:47:01;;;;;;;120.20;68.10;;;;;;;-2.04;100.00;98932.16;179783;1262;44737;-70
2023/11/30 18:51:06;;;;;;;143.40;79.80;;;;;;;-2.06;100.00;98943.05;179679;1262;43780;-70
2023/11/30 18:55:09;;;;;;;134.50;79.80;;;;;;;-2.05;100.00;98948.56;179901;1262;57990;-70